Time;durP1;ratioP1;P1;durP2;ratioP2;P2;SDS_P1;SDS_P2;PMS_P1;PMS_P2;Temp;Humidity;BMP_temperature;BMP_pressure;BME280_temperature;BME280_humidity;BME280_pressure;Samples;Min_cycle;Max_cycle;Signal;HPM_P1;HPM_P2
2022/06/08 00:01:10;;;;;;;7.07;3.50;;;24.00;99.90;;;;;;5007235;28;20068;-48
2022/06/08 00:03:51;;;;;;;4.65;3.35;;;24.00;99.90;;;;;;5037556;28;20064;-50
2022/06/08 00:06:19;;;;;;;7.50;3.55;;;24.00;99.90;;;;;;5049153;28;20076;-49
2022/06/08 00:08:45;;;;;;;4.45;3.38;;;24.00;99.90;;;;;;5036384;28;20083;-49
2022/06/08 00:11:11;;;;;;;5.38;3.38;;;24.00;99.90;;;;;;5042642;28;20061;-49
2022/06/08 00:13:37;;;;;;;6.30;3.90;;;23.80;99.90;;;;;;5040398;28;20339;-49
2022/06/08 00:16:04;;;;;;;9.45;4.40;;;23.70;99.90;;;;;;5035811;28;20038;-50
2022/06/08 00:18:30;;;;;;;5.47;3.70;;;23.70;99.90;;;;;;5051978;28;20141;-49
2022/06/08 00:20:56;;;;;;;9.23;4.72;;;23.60;99.90;;;;;;5001578;28;20116;-50
2022/06/08 00:23:22;;;;;;;6.03;4.20;;;23.60;99.90;;;;;;5037245;28;20037;-48
2022/06/08 00:25:48;;;;;;;6.22;4.50;;;23.40;99.90;;;;;;5037234;28;20189;-48
2022/06/08 00:28:15;;;;;;;7.80;4.45;;;23.60;99.90;;;;;;5034490;28;20129;-50
2022/06/08 00:30:41;;;;;;;8.48;4.35;;;23.60;99.90;;;;;;5038382;28;20554;-50
2022/06/08 00:33:07;;;;;;;10.88;5.15;;;23.50;99.90;;;;;;5032381;28;20036;-50
2022/06/08 00:35:33;;;;;;;8.05;4.72;;;23.50;99.90;;;;;;5049310;28;20029;-49
2022/06/08 00:37:59;;;;;;;5.28;4.75;;;23.40;99.90;;;;;;5036401;28;20076;-48
2022/06/08 00:40:47;;;;;;;8.35;5.25;;;23.30;99.90;;;;;;5035374;28;20033;-49
2022/06/08 00:43:13;;;;;;;6.72;5.60;;;23.30;99.90;;;;;;5034756;28;20038;-48
2022/06/08 00:45:39;;;;;;;8.38;6.13;;;23.20;99.90;;;;;;5035741;28;20033;-50
2022/06/08 00:48:06;;;;;;;11.55;5.20;;;;;;;;;;5034214;28;20021;-48
2022/06/08 00:50:51;;;;;;;7.03;5.85;;;;;;;;;;5038358;28;20048;-50
2022/06/08 00:53:22;;;;;;;9.75;6.05;;;22.40;99.90;;;;;;5037248;28;20040;-50
2022/06/08 00:55:48;;;;;;;8.20;6.85;;;22.60;99.90;;;;;;5037403;28;20025;-49
2022/06/08 00:58:18;;;;;;;6.97;5.88;;;22.50;99.90;;;;;;5035661;28;20040;-48
2022/06/08 01:00:45;;;;;;;9.30;7.38;;;22.40;99.90;;;;;;5039118;28;20040;-49
2022/06/08 01:03:13;;;;;;;8.50;6.13;;;;;;;;;;5038539;28;20025;-49
2022/06/08 01:05:41;;;;;;;7.50;6.15;;;;;;;;;;5041483;28;20048;-50
2022/06/08 01:08:19;;;;;;;11.23;5.68;;;;;;;;;;5033394;28;20032;-50
2022/06/08 01:10:48;;;;;;;7.68;6.00;;;22.30;99.90;;;;;;5038789;28;20017;-48
2022/06/08 01:13:14;;;;;;;7.82;6.50;;;22.20;99.90;;;;;;5034625;28;20098;-48
2022/06/08 01:15:42;;;;;;;7.47;6.22;;;22.20;99.90;;;;;;4996061;28;20132;-49
2022/06/08 01:18:08;;;;;;;10.50;6.78;;;22.20;99.90;;;;;;5036535;28;20042;-48
2022/06/08 01:20:35;;;;;;;7.88;6.03;;;22.00;99.90;;;;;;5035485;28;20025;-48
2022/06/08 01:23:02;;;;;;;10.15;5.80;;;21.80;99.90;;;;;;5036578;28;20551;-49
2022/06/08 01:25:38;;;;;;;12.00;6.00;;;22.00;99.90;;;;;;5048295;28;20485;-49
2022/06/08 01:28:24;;;;;;;10.27;5.75;;;21.90;99.90;;;;;;5034328;28;20045;-50
2022/06/08 01:31:00;;;;;;;8.05;6.10;;;21.90;99.90;;;;;;5038543;28;20032;-48
2022/06/08 01:33:32;;;;;;;7.45;6.60;;;22.00;99.90;;;;;;5035295;28;20463;-49
2022/06/08 01:36:06;;;;;;;7.45;5.78;;;22.00;99.90;;;;;;5037491;28;20086;-50
2022/06/08 01:38:42;;;;;;;7.15;6.00;;;22.20;99.90;;;;;;5034717;28;20401;-48
2022/06/08 01:41:42;;;;;;;7.82;6.22;;;22.10;99.90;;;;;;5026609;28;20077;-51
2022/06/08 01:44:26;;;;;;;11.55;6.75;;;22.20;99.90;;;;;;5048808;28;20045;-48
2022/06/08 01:47:11;;;;;;;7.63;6.50;;;22.30;99.90;;;;;;5033357;28;20033;-50
2022/06/08 01:50:10;;;;;;;9.48;7.03;;;22.30;99.90;;;;;;5034895;28;20025;-50
2022/06/08 01:52:50;;;;;;;168.77;117.40;;;22.10;99.90;;;;;;5026525;28;20038;-49
2022/06/08 01:55:46;;;;;;;18.85;13.77;;;22.30;99.90;;;;;;5014228;28;20605;-48
2022/06/08 01:58:14;;;;;;;11.15;8.75;;;22.30;99.90;;;;;;5016318;28;20081;-48
2022/06/08 02:00:46;;;;;;;9.43;7.55;;;22.30;99.90;;;;;;5016190;28;20084;-51
2022/06/08 02:03:19;;;;;;;;;;;22.30;99.90;;;;;;5005818;28;20129;-48
2022/06/08 02:05:44;;;;;;;7.93;7.10;;;22.30;99.90;;;;;;5000455;28;19909;-48
2022/06/08 02:08:13;;;;;;;8.57;7.68;;;22.20;99.90;;;;;;5003669;28;20088;-50
2022/06/08 02:10:48;;;;;;;10.00;8.60;;;22.20;99.90;;;;;;5015240;28;20046;-51
2022/06/08 02:13:31;;;;;;;11.55;10.00;;;21.80;99.90;;;;;;5012302;28;20033;-49
2022/06/08 02:16:05;;;;;;;9.15;8.15;;;;;;;;;;5014063;28;20520;-48
2022/06/08 02:18:43;;;;;;;10.30;8.27;;;;;;;;;;4980340;28;20133;-49
2022/06/08 02:21:12;;;;;;;10.60;8.43;;;;;;;;;;5015382;28;20469;-47
2022/06/08 02:23:45;;;;;;;11.00;7.45;;;;;;;;;;4991964;28;20042;-50
2022/06/08 02:26:14;;;;;;;8.75;7.65;;;;;;;;;;4995958;28;20460;-48
2022/06/08 02:29:00;;;;;;;10.55;7.38;;;;;;;;;;4996514;28;20509;-49
2022/06/08 02:31:34;;;;;;;8.15;7.00;;;20.80;99.90;;;;;;4992409;28;20414;-48
2022/06/08 02:34:29;;;;;;;7.50;5.80;;;20.50;99.90;;;;;;5026351;28;20034;-47
2022/06/08 02:37:04;;;;;;;7.88;6.05;;;20.40;99.90;;;;;;5013278;28;20072;-50
2022/06/08 02:39:36;;;;;;;8.82;6.57;;;20.60;99.90;;;;;;5017908;28;20366;-50
2022/06/08 02:42:10;;;;;;;9.98;7.47;;;20.80;99.90;;;;;;5014830;28;20500;-49
2022/06/08 02:44:39;;;;;;;10.77;6.40;;;20.80;99.90;;;;;;5021490;28;20087;-49
2022/06/08 02:47:15;;;;;;;7.65;5.43;;;20.80;99.90;;;;;;5028639;28;20042;-49
2022/06/08 02:49:41;;;;;;;7.00;5.20;;;20.70;99.90;;;;;;5014024;28;20053;-51
2022/06/08 02:52:15;;;;;;;5.97;4.40;;;;;;;;;;4992360;28;20548;-50
2022/06/08 02:54:41;;;;;;;7.20;4.60;;;20.60;99.90;;;;;;5012606;28;20025;-50
2022/06/08 02:57:38;;;;;;;7.20;5.32;;;20.50;99.90;;;;;;5034945;28;20044;-50
2022/06/08 03:00:14;;;;;;;6.35;4.68;;;20.50;99.90;;;;;;4985589;28;20049;-49
2022/06/08 03:03:02;;;;;;;7.50;5.32;;;20.50;99.90;;;;;;4978034;28;20039;-50
2022/06/08 03:05:34;;;;;;;6.18;5.57;;;20.30;99.90;;;;;;5009883;28;20040;-50
2022/06/08 03:08:15;;;;;;;10.40;5.50;;;20.20;99.90;;;;;;5025832;28;20429;-51
2022/06/08 03:10:42;;;;;;;8.20;5.78;;;20.30;99.90;;;;;;5031471;28;20141;-49
2022/06/08 03:13:11;;;;;;;7.65;6.78;;;20.60;99.90;;;;;;5022602;28;20104;-49
2022/06/08 03:15:40;;;;;;;7.68;5.72;;;20.60;99.90;;;;;;5012766;28;20394;-49
2022/06/08 03:18:06;;;;;;;10.23;9.20;;;20.70;99.90;;;;;;5013601;28;20129;-48
2022/06/08 03:20:33;;;;;;;7.20;6.38;;;20.80;99.90;;;;;;5013500;28;20029;-50
2022/06/08 03:22:59;;;;;;;8.90;6.28;;;20.70;99.90;;;;;;5031655;28;20049;-49
2022/06/08 03:25:25;;;;;;;9.50;6.55;;;20.60;99.90;;;;;;5018319;28;20056;-51
2022/06/08 03:27:51;;;;;;;8.88;6.30;;;20.90;99.90;;;;;;5020365;28;20045;-49
2022/06/08 03:30:17;;;;;;;8.85;6.60;;;21.00;99.90;;;;;;5030666;28;20504;-51
2022/06/08 03:32:43;;;;;;;8.95;6.50;;;21.30;99.90;;;;;;4950067;28;20033;-50
2022/06/08 03:35:10;;;;;;;9.63;7.00;;;21.40;99.90;;;;;;5016935;28;20042;-52
2022/06/08 03:37:36;;;;;;;9.20;7.57;;;21.50;99.90;;;;;;5019428;28;20045;-50
2022/06/08 03:40:04;;;;;;;21.02;17.13;;;21.50;99.90;;;;;;5016623;28;20041;-48
2022/06/08 03:42:30;;;;;;;12.77;11.48;;;21.30;99.90;;;;;;5017410;28;20030;-49
2022/06/08 03:44:56;;;;;;;18.75;13.82;;;21.30;99.90;;;;;;4968080;28;20441;-48
2022/06/08 03:47:27;;;;;;;10.35;8.10;;;21.10;99.90;;;;;;5013521;28;20080;-50
2022/06/08 03:49:57;;;;;;;9.77;6.95;;;21.30;99.90;;;;;;4999253;28;20044;-48
2022/06/08 03:52:28;;;;;;;8.77;7.55;;;21.40;99.90;;;;;;5000042;28;20104;-49
2022/06/08 03:54:59;;;;;;;8.80;7.40;;;21.50;99.90;;;;;;5013787;28;20026;-49
2022/06/08 03:57:28;;;;;;;8.27;7.20;;;21.70;99.90;;;;;;5015325;28;20065;-51
2022/06/08 03:59:55;;;;;;;9.32;8.30;;;21.80;99.90;;;;;;5018175;28;20049;-50
2022/06/08 04:02:23;;;;;;;9.35;8.43;;;21.90;99.90;;;;;;5013247;28;20038;-49
2022/06/08 04:04:49;;;;;;;12.30;9.15;;;21.90;99.90;;;;;;5020856;28;20046;-48
2022/06/08 04:07:16;;;;;;;11.65;9.60;;;22.00;99.90;;;;;;5021587;28;20037;-50
2022/06/08 04:09:42;;;;;;;14.30;9.73;;;22.10;99.90;;;;;;5020921;28;20053;-51
2022/06/08 04:12:08;;;;;;;13.68;10.02;;;22.20;99.90;;;;;;5015006;28;20062;-50
2022/06/08 04:14:34;;;;;;;11.68;9.85;;;22.30;99.90;;;;;;5026497;28;20120;-48
2022/06/08 04:17:01;;;;;;;13.23;10.25;;;22.40;99.90;;;;;;5035771;28;20448;-49
2022/06/08 04:19:28;;;;;;;12.45;8.90;;;22.50;99.90;;;;;;5015788;28;20065;-52
2022/06/08 04:21:54;;;;;;;11.77;9.77;;;22.30;99.90;;;;;;5017492;28;20061;-50
2022/06/08 04:24:21;;;;;;;13.90;10.80;;;22.50;99.90;;;;;;4989595;28;20470;-48
2022/06/08 04:26:47;;;;;;;12.07;10.70;;;22.30;99.90;;;;;;5037071;28;20041;-49
2022/06/08 04:29:14;;;;;;;12.02;9.70;;;22.30;99.90;;;;;;5008939;28;20104;-49
2022/06/08 04:31:40;;;;;;;12.70;9.50;;;22.30;99.90;;;;;;5014111;28;20033;-49
2022/06/08 04:34:09;;;;;;;10.02;9.02;;;22.50;99.90;;;;;;5013373;28;20026;-49
2022/06/08 04:36:35;;;;;;;11.85;9.73;;;22.70;99.90;;;;;;5029351;28;20042;-51
2022/06/08 04:39:02;;;;;;;11.68;8.50;;;;;;;;;;5016024;28;20083;-48
2022/06/08 04:41:28;;;;;;;11.95;8.82;;;23.20;99.90;;;;;;5014283;28;20030;-49
2022/06/08 04:43:55;;;;;;;14.20;8.43;;;23.20;99.90;;;;;;5028929;28;20053;-51
2022/06/08 04:46:20;;;;;;;9.20;8.02;;;23.20;99.90;;;;;;5014710;28;20034;-51
2022/06/08 04:48:47;;;;;;;14.45;9.32;;;23.30;99.90;;;;;;5013423;28;20065;-48
2022/06/08 04:51:14;;;;;;;11.85;8.80;;;23.40;99.90;;;;;;5030518;28;20425;-50
2022/06/08 04:53:42;;;;;;;12.35;8.90;;;23.50;99.90;;;;;;5019215;28;20470;-50
2022/06/08 04:56:09;;;;;;;13.07;9.15;;;23.50;99.90;;;;;;5019157;28;20037;-52
2022/06/08 04:58:35;;;;;;;11.57;8.30;;;23.80;99.90;;;;;;5012689;28;20485;-51
2022/06/08 05:01:03;;;;;;;12.57;9.30;;;23.80;99.90;;;;;;5030284;28;20129;-50
2022/06/08 05:03:30;;;;;;;9.38;8.40;;;23.90;99.90;;;;;;5014624;28;20052;-51
2022/06/08 05:05:58;;;;;;;10.73;9.10;;;24.00;99.90;;;;;;5015448;28;20071;-48
2022/06/08 05:08:24;;;;;;;9.95;8.18;;;24.20;99.90;;;;;;5014983;28;20701;-49
2022/06/08 05:10:51;;;;;;;11.45;8.60;;;24.10;99.90;;;;;;5013595;28;20032;-52
2022/06/08 05:13:17;;;;;;;12.43;7.95;;;24.20;99.90;;;;;;5014197;28;20037;-52
2022/06/08 05:15:44;;;;;;;13.05;9.13;;;24.30;99.90;;;;;;5016900;28;20073;-50
2022/06/08 05:18:12;;;;;;;15.15;9.60;;;24.20;99.90;;;;;;5011624;28;20080;-48
2022/06/08 05:20:40;;;;;;;10.02;7.95;;;24.30;99.90;;;;;;5012248;28;20038;-51
2022/06/08 05:23:11;;;;;;;13.35;9.15;;;24.20;99.90;;;;;;5018332;28;20128;-50
2022/06/08 05:25:40;;;;;;;11.00;9.10;;;24.10;99.90;;;;;;4975971;28;20118;-51
2022/06/08 05:28:07;;;;;;;9.73;8.77;;;23.90;99.90;;;;;;4978879;28;20077;-49
2022/06/08 05:30:34;;;;;;;16.05;9.15;;;23.90;99.90;;;;;;4974506;28;20094;-48
2022/06/08 05:33:01;;;;;;;9.90;8.88;;;23.90;99.90;;;;;;4972228;28;20073;-49
2022/06/08 05:35:28;;;;;;;10.75;8.55;;;23.50;99.90;;;;;;4937494;28;20041;-51
2022/06/08 05:37:55;;;;;;;11.60;8.40;;;23.50;99.90;;;;;;4971926;28;20117;-50
2022/06/08 05:40:21;;;;;;;8.40;7.43;;;23.50;99.90;;;;;;4972095;28;20038;-49
2022/06/08 05:42:48;;;;;;;9.10;7.45;;;23.40;99.90;;;;;;4933682;29;20043;-51
2022/06/08 05:45:21;;;;;;;8.57;7.57;;;23.40;99.90;;;;;;4869763;29;20590;-50
2022/06/08 05:47:47;;;;;;;9.93;8.32;;;23.20;99.90;;;;;;4919135;29;20099;-49
2022/06/08 05:50:14;;;;;;;10.48;8.60;;;23.10;99.90;;;;;;4917952;29;20122;-48
2022/06/08 05:52:40;;;;;;;9.23;8.32;;;22.80;99.90;;;;;;4914576;29;20047;-49
2022/06/08 05:55:07;;;;;;;13.70;8.50;;;22.70;99.90;;;;;;4913060;29;20122;-51
2022/06/08 05:57:33;;;;;;;10.45;9.45;;;22.70;99.90;;;;;;4914847;29;20091;-48
2022/06/08 05:59:59;;;;;;;9.90;8.02;;;22.70;99.90;;;;;;4935027;28;20052;-49
2022/06/08 06:02:25;;;;;;;10.77;8.45;;;22.60;99.90;;;;;;4932545;29;20055;-52
2022/06/08 06:04:50;;;;;;;10.18;8.23;;;22.60;99.90;;;;;;4930744;29;20032;-47
2022/06/08 06:07:17;;;;;;;9.57;7.43;;;22.70;99.90;;;;;;4926922;29;20054;-49
2022/06/08 06:09:43;;;;;;;10.65;9.32;;;22.80;99.90;;;;;;4934126;29;20047;-48
2022/06/08 06:12:10;;;;;;;11.20;9.40;;;22.80;99.90;;;;;;4933487;29;20067;-49
2022/06/08 06:14:36;;;;;;;13.57;10.40;;;22.80;99.90;;;;;;4947759;28;20419;-47
2022/06/08 06:17:02;;;;;;;13.70;9.32;;;22.80;99.90;;;;;;4971471;28;20085;-50
2022/06/08 06:19:28;;;;;;;13.27;10.32;;;22.30;99.90;;;;;;4948378;28;20134;-58
2022/06/08 06:21:54;;;;;;;11.85;10.50;;;22.20;99.90;;;;;;4968539;28;20108;-50
2022/06/08 06:24:20;;;;;;;11.48;9.95;;;22.30;99.90;;;;;;4935646;29;20046;-53
2022/06/08 06:26:46;;;;;;;11.38;8.07;;;21.90;99.90;;;;;;4952082;28;20558;-49
2022/06/08 06:29:12;;;;;;;9.68;7.88;;;21.80;99.90;;;;;;4937682;29;20158;-45
2022/06/08 06:31:46;;;;;;;13.43;7.80;;;21.50;99.90;;;;;;4951460;29;20447;-50
2022/06/08 06:34:13;;;;;;;6.55;4.68;;;;;;;;;;4958573;28;20034;-51
2022/06/08 06:36:39;;;;;;;7.70;4.15;;;;;;;;;;4990752;28;20034;-52
2022/06/08 06:39:05;;;;;;;6.10;4.40;;;;;;;;;;4975156;28;20054;-53
2022/06/08 06:41:32;;;;;;;5.95;3.15;;;20.30;99.90;;;;;;4992088;28;20030;-53
2022/06/08 06:43:59;;;;;;;7.82;4.40;;;20.00;99.90;;;;;;4991474;28;20042;-51
2022/06/08 06:46:25;;;;;;;6.90;3.22;;;;;;;;;;4991761;28;20030;-52
2022/06/08 06:48:51;;;;;;;11.70;4.13;;;19.30;99.90;;;;;;4990746;28;20042;-51
2022/06/08 06:51:17;;;;;;;13.43;4.65;;;19.10;99.90;;;;;;5009431;28;20051;-51
2022/06/08 06:53:43;;;;;;;8.60;3.72;;;19.00;99.90;;;;;;5013307;28;20128;-53
2022/06/08 06:56:09;;;;;;;10.40;4.18;;;18.80;99.90;;;;;;5030612;28;20046;-51
2022/06/08 06:58:36;;;;;;;8.18;3.80;;;18.80;99.90;;;;;;5017408;28;20092;-52
2022/06/08 07:01:03;;;;;;;6.60;2.90;;;18.40;99.90;;;;;;5031783;28;20053;-55
2022/06/08 07:03:29;;;;;;;6.30;4.20;;;18.50;99.90;;;;;;5017204;28;20049;-55
2022/06/08 07:05:56;;;;;;;5.88;4.80;;;18.50;99.90;;;;;;5016217;28;20030;-52
2022/06/08 07:08:22;;;;;;;6.85;4.93;;;18.60;99.90;;;;;;5016280;28;20129;-51
2022/06/08 07:11:32;;;;;;;6.63;4.05;;;18.60;99.90;;;;;;5015426;28;20070;-49
2022/06/08 07:13:34;;;;;;;6.85;3.63;;;18.70;99.90;;;;;;5007661;28;20044;-54
2022/06/08 07:16:00;;;;;;;8.88;3.83;;;18.70;99.90;;;;;;5024005;28;20041;-54
2022/06/08 07:18:27;;;;;;;7.63;4.05;;;18.80;99.90;;;;;;5023905;28;20042;-55
2022/06/08 07:20:53;;;;;;;10.38;4.15;;;19.00;99.90;;;;;;5023001;28;20038;-54
2022/06/08 07:23:19;;;;;;;8.07;3.75;;;19.00;99.90;;;;;;5032268;28;20048;-51
2022/06/08 07:25:45;;;;;;;8.00;5.15;;;19.20;99.90;;;;;;5026613;28;20030;-50
2022/06/08 07:28:11;;;;;;;6.40;4.95;;;19.20;99.90;;;;;;5021987;28;20045;-55
2022/06/08 07:30:36;;;;;;;7.35;3.72;;;19.30;99.90;;;;;;5024348;28;20401;-49
2022/06/08 07:33:03;;;;;;;7.28;3.70;;;19.40;99.90;;;;;;5015124;28;20048;-52
2022/06/08 07:35:29;;;;;;;6.05;3.90;;;19.60;99.90;;;;;;5026805;28;20108;-49
2022/06/08 07:37:55;;;;;;;4.13;3.67;;;19.80;99.90;;;;;;5032036;28;20042;-52
2022/06/08 07:40:22;;;;;;;5.72;3.47;;;19.70;99.90;;;;;;5017053;28;20033;-51
2022/06/08 07:42:47;;;;;;;5.93;3.00;;;19.90;99.90;;;;;;5016492;28;20037;-56
2022/06/08 07:45:13;;;;;;;4.68;3.22;;;20.10;99.90;;;;;;5018155;28;20401;-49
2022/06/08 07:50:26;;;;;;;5.85;3.55;;;20.30;99.90;;;;;;5022433;28;20156;-49
2022/06/08 07:52:53;;;;;;;4.32;3.53;;;20.40;99.90;;;;;;5025391;28;20025;-48
2022/06/08 07:55:19;;;;;;;5.85;3.38;;;20.50;99.90;;;;;;5023640;28;20038;-49
2022/06/08 07:57:47;;;;;;;5.55;3.80;;;20.50;99.90;;;;;;5026207;28;20049;-49
2022/06/08 08:00:14;;;;;;;5.82;3.45;;;20.60;99.90;;;;;;5022928;28;20390;-49
2022/06/08 08:02:41;;;;;;;6.13;4.60;;;20.70;99.90;;;;;;5008081;28;20038;-47
2022/06/08 08:05:09;;;;;;;4.90;3.30;;;20.80;99.90;;;;;;5008823;28;20103;-49
2022/06/08 08:07:36;;;;;;;7.18;4.53;;;20.90;99.90;;;;;;5013893;28;20044;-50
2022/06/08 08:10:06;;;;;;;6.85;3.50;;;21.10;99.90;;;;;;5000225;28;20124;-52
2022/06/08 08:12:32;;;;;;;6.15;3.88;;;21.00;99.90;;;;;;4999608;28;20060;-47
2022/06/08 08:14:57;;;;;;;5.32;4.18;;;21.10;99.90;;;;;;5026124;28;20072;-48
2022/06/08 08:17:23;;;;;;;6.25;3.58;;;21.10;99.90;;;;;;5033384;28;20025;-50
2022/06/08 08:19:49;;;;;;;4.78;3.40;;;21.00;99.90;;;;;;5030617;28;20080;-48
2022/06/08 08:22:16;;;;;;;4.88;3.47;;;20.80;99.90;;;;;;5030534;28;20036;-50
2022/06/08 08:24:42;;;;;;;6.15;3.80;;;20.80;99.90;;;;;;4997685;28;20523;-50
2022/06/08 08:27:08;;;;;;;4.30;3.78;;;20.60;99.90;;;;;;5036374;28;20044;-53
2022/06/08 08:29:34;;;;;;;6.40;3.95;;;20.60;99.90;;;;;;5008742;28;20057;-49
2022/06/08 08:32:01;;;;;;;4.32;3.90;;;20.50;99.90;;;;;;5041702;28;20485;-49
2022/06/08 08:34:27;;;;;;;5.20;4.45;;;20.60;99.90;;;;;;5030607;28;20490;-49
2022/06/08 08:36:53;;;;;;;5.32;4.25;;;20.40;99.90;;;;;;5017201;28;20124;-51
2022/06/08 08:39:19;;;;;;;5.20;3.95;;;20.30;99.90;;;;;;5020393;28;20046;-52
2022/06/08 08:44:37;;;;;;;3.92;3.28;;;20.40;99.90;;;;;;5024747;28;20044;-52
2022/06/08 08:47:10;;;;;;;3.58;3.20;;;20.50;99.90;;;;;;5021068;28;20365;-51
2022/06/08 08:49:43;;;;;;;7.32;4.53;;;20.60;99.90;;;;;;5028029;28;20038;-52
2022/06/08 08:52:59;;;;;;;6.07;4.00;;;20.50;99.90;;;;;;5023311;28;20030;-52
2022/06/08 08:55:50;;;;;;;6.15;3.13;;;20.50;99.90;;;;;;5000236;28;20049;-50
2022/06/08 08:58:19;;;;;;;6.70;3.80;;;20.40;99.90;;;;;;5001640;28;20434;-52
2022/06/08 09:00:47;;;;;;;6.07;4.10;;;20.60;99.90;;;;;;4990771;28;20128;-51
2022/06/08 09:03:16;;;;;;;5.13;3.67;;;20.40;99.90;;;;;;4993034;28;20042;-47
2022/06/08 09:05:44;;;;;;;4.15;2.97;;;20.30;99.90;;;;;;4993157;28;20038;-49
2022/06/08 09:08:11;;;;;;;5.18;3.25;;;20.40;99.90;;;;;;4993215;28;20034;-47
2022/06/08 09:10:37;;;;;;;4.40;3.60;;;20.30;99.90;;;;;;4951757;28;20042;-49
2022/06/08 09:13:04;;;;;;;5.07;3.42;;;20.50;99.90;;;;;;4998086;28;20029;-48
2022/06/08 09:15:52;;;;;;;7.13;4.03;;;20.30;99.90;;;;;;4994687;28;20050;-48
2022/06/08 09:18:41;;;;;;;10.77;4.05;;;20.40;99.90;;;;;;4991550;28;20648;-48
2022/06/08 09:21:24;;;;;;;5.53;3.78;;;20.60;99.90;;;;;;4958675;28;20097;-49
2022/06/08 09:24:06;;;;;;;3.63;3.33;;;20.60;99.90;;;;;;5000522;28;20137;-49
2022/06/08 09:26:36;;;;;;;4.05;3.53;;;20.90;99.90;;;;;;5000766;28;20034;-48
2022/06/08 09:29:08;;;;;;;5.45;3.17;;;21.10;99.90;;;;;;5007910;28;20046;-48
2022/06/08 09:31:35;;;;;;;9.15;4.25;;;21.00;99.90;;;;;;5014485;28;20437;-49
2022/06/08 09:34:13;;;;;;;7.00;3.50;;;21.00;99.90;;;;;;5013465;28;20121;-48
2022/06/08 09:36:39;;;;;;;3.85;3.47;;;21.10;99.90;;;;;;5012354;28;20045;-48
2022/06/08 09:39:05;;;;;;;5.88;3.80;;;21.30;99.90;;;;;;5012462;28;20128;-47
2022/06/08 09:41:49;;;;;;;5.45;3.72;;;21.60;99.90;;;;;;4978553;28;20050;-49
2022/06/08 09:44:22;;;;;;;4.18;3.60;;;21.60;99.90;;;;;;4943942;28;20046;-49
2022/06/08 09:53:32;;;;;;;5.78;3.80;;;22.60;99.90;;;;;;5011775;28;20045;-49
2022/06/08 09:56:31;;;;;;;4.65;3.15;;;23.10;99.90;;;;;;5007937;28;20025;-47
2022/06/08 09:59:06;;;;;;;5.13;3.25;;;23.00;99.90;;;;;;5019980;28;20052;-48
2022/06/08 10:01:35;;;;;;;3.95;3.13;;;;;;;;;;5013916;28;20091;-49
2022/06/08 10:04:01;;;;;;;5.13;3.20;;;;;;;;;;5019133;28;20048;-47
2022/06/08 10:06:41;;;;;;;3.55;2.90;;;23.80;99.90;;;;;;5020032;28;20025;-48
2022/06/08 10:09:31;;;;;;;3.53;3.22;;;23.40;99.90;;;;;;5022648;28;20412;-48
2022/06/08 10:11:58;;;;;;;6.97;3.00;;;;;;;;;;5013927;28;20042;-48
2022/06/08 10:14:47;;;;;;;5.13;3.10;;;23.90;99.90;;;;;;5006507;28;20042;-49
2022/06/08 10:17:19;;;;;;;6.22;3.42;;;;;;;;;;5012518;28;20124;-49
2022/06/08 10:20:12;;;;;;;4.45;3.08;;;24.50;99.90;;;;;;5013449;28;20046;-47
2022/06/08 10:22:42;;;;;;;4.55;2.75;;;;;;;;;;5011605;28;20037;-51
2022/06/08 10:25:08;;;;;;;5.45;3.03;;;;;;;;;;5008504;28;20121;-47
2022/06/08 10:27:54;;;;;;;5.13;2.55;;;;;;;;;;5011481;28;20060;-54
2022/06/08 10:30:35;;;;;;;3.92;2.72;;;;;;;;;;5011484;28;20068;-51
2022/06/08 10:33:05;;;;;;;2.97;2.67;;;;;;;;;;4995175;28;20042;-54
2022/06/08 10:35:42;;;;;;;3.55;2.10;;;;;;;;;;5011399;28;20139;-57
2022/06/08 10:38:16;;;;;;;3.00;2.00;;;;;;;;;;4994772;28;20096;-52
2022/06/08 10:40:58;;;;;;;4.07;2.03;;;25.50;99.90;;;;;;5011401;28;20124;-49
2022/06/08 10:43:26;;;;;;;;;;;25.70;99.90;;;;;;5010173;28;20501;-54
2022/06/08 10:45:54;;;;;;;1.70;1.50;;;;;;;;;;5011387;28;19940;-49
2022/06/08 10:48:27;;;;;;;2.58;2.10;;;25.80;99.90;;;;;;5001457;28;20516;-50
2022/06/08 10:51:27;;;;;;;3.97;1.70;;;25.70;99.90;;;;;;4993458;28;20070;-54
2022/06/08 10:56:39;;;;;;;2.50;1.98;;;25.90;99.90;;;;;;5013551;28;20120;-51
2022/06/08 10:59:13;;;;;;;3.97;2.63;;;;;;;;;;5021547;28;20532;-49
2022/06/08 11:01:54;;;;;;;2.63;1.85;;;26.30;99.90;;;;;;5012393;28;20514;-45
2022/06/08 11:04:35;;;;;;;2.65;2.20;;;;;;;;;;4993057;28;20417;-47
2022/06/08 11:07:13;;;;;;;2.47;1.83;;;26.40;99.90;;;;;;4975898;28;20042;-51
2022/06/08 11:09:39;;;;;;;3.03;2.05;;;26.60;99.90;;;;;;5010977;28;20073;-48
2022/06/08 11:12:11;;;;;;;2.67;1.92;;;;;;;;;;5010885;28;20034;-53
2022/06/08 11:14:43;;;;;;;2.00;1.67;;;;;;;;;;5011016;28;20034;-48
2022/06/08 11:17:32;;;;;;;2.50;2.00;;;;;;;;;;5015146;28;20073;-50
2022/06/08 11:20:26;;;;;;;3.03;2.20;;;27.90;99.90;;;;;;4963219;28;20043;-48
2022/06/08 11:23:01;;;;;;;3.33;2.10;;;28.00;99.90;;;;;;4972058;28;20055;-48
2022/06/08 11:25:33;;;;;;;2.97;1.90;;;27.80;99.90;;;;;;4971971;28;20142;-47
2022/06/08 11:28:33;;;;;;;2.00;1.58;;;27.60;99.90;;;;;;4972096;28;20051;-50
2022/06/08 11:31:03;;;;;;;3.33;1.77;;;;;;;;;;4951867;29;20527;-49
2022/06/08 11:34:03;;;;;;;2.70;1.90;;;27.50;99.90;;;;;;4951731;29;20047;-45
2022/06/08 11:37:23;;;;;;;4.30;1.90;;;27.90;99.90;;;;;;4919024;29;20127;-48
2022/06/08 11:40:10;;;;;;;2.28;1.70;;;28.20;99.90;;;;;;4873505;29;20056;-48
2022/06/08 11:42:58;;;;;;;2.47;1.92;;;28.60;99.90;;;;;;4862986;29;20120;-51
2022/06/08 11:45:28;;;;;;;2.95;1.90;;;;;;;;;;4842800;29;20066;-48
2022/06/08 11:48:04;;;;;;;2.53;2.00;;;;;;;;;;4843031;29;20078;-47
2022/06/08 11:50:50;;;;;;;5.07;2.08;;;;;;;;;;4842968;29;20053;-45
2022/06/08 11:53:18;;;;;;;2.65;1.70;;;;;;;;;;4846877;29;20394;-48
2022/06/08 11:56:02;;;;;;;2.13;1.70;;;;;;;;;;4862028;29;20098;-47
2022/06/08 11:58:29;;;;;;;2.33;1.50;;;;;;;;;;4913582;29;20131;-44
2022/06/08 12:01:00;;;;;;;3.15;1.60;;;;;;;;;;4927125;29;20059;-49
2022/06/08 12:03:29;;;;;;;3.33;1.88;;;;;;;;;;4924741;29;20086;-52
2022/06/08 12:06:22;;;;;;;2.80;1.48;;;;;;;;;;4920176;29;20068;-49
2022/06/08 12:08:54;;;;;;;1.80;1.60;;;;;;;;;;4911523;29;20364;-48
2022/06/08 12:11:23;;;;;;;1.90;1.60;;;;;;;;;;4896932;29;20040;-48
2022/06/08 12:14:12;;;;;;;1.85;1.65;;;;;;;;;;4947018;28;20146;-46
2022/06/08 12:16:38;;;;;;;2.40;1.90;;;;;;;;;;4954792;29;20046;-49
2022/06/08 12:19:15;;;;;;;3.17;1.90;;;;;;;;;;4953287;28;20043;-57
2022/06/08 12:21:43;;;;;;;2.22;1.55;;;;;;;;;;4943649;28;20044;-50
2022/06/08 12:24:12;;;;;;;3.53;1.70;;;;;;;;;;4955030;29;20574;-53
2022/06/08 12:26:57;;;;;;;2.63;1.83;;;28.50;99.90;;;;;;4952210;28;20040;-54
2022/06/08 12:29:32;;;;;;;2.85;2.00;;;;;;;;;;4969094;28;20137;-48
2022/06/08 12:32:07;;;;;;;4.70;2.08;;;28.10;99.90;;;;;;4963689;28;20027;-51
2022/06/08 12:34:46;;;;;;;2.15;1.85;;;28.10;99.90;;;;;;4976310;28;20046;-47
2022/06/08 12:37:28;;;;;;;2.25;1.80;;;28.10;99.90;;;;;;4970702;28;20126;-49
2022/06/08 12:40:00;;;;;;;1.95;1.67;;;28.20;99.90;;;;;;4973260;28;20054;-48
2022/06/08 12:42:29;;;;;;;2.33;1.73;;;28.10;99.90;;;;;;4940782;28;20470;-51
2022/06/08 12:44:58;;;;;;;2.75;1.80;;;28.00;99.90;;;;;;4973426;28;20034;-47
2022/06/08 12:47:29;;;;;;;2.72;2.15;;;28.00;99.90;;;;;;4949124;28;20035;-52
2022/06/08 12:50:19;;;;;;;2.28;2.08;;;28.00;99.90;;;;;;4927306;29;20130;-51
2022/06/08 12:52:46;;;;;;;2.08;1.88;;;27.70;99.90;;;;;;4906892;29;20032;-47
2022/06/08 12:55:14;;;;;;;3.10;2.10;;;;;;;;;;4912915;29;20115;-50
2022/06/08 12:57:42;;;;;;;2.97;2.13;;;27.90;99.90;;;;;;4913910;29;20060;-50
2022/06/08 13:00:11;;;;;;;1.90;1.70;;;28.00;99.90;;;;;;4900637;29;20102;-50
2022/06/08 13:02:39;;;;;;;2.00;1.80;;;28.30;99.90;;;;;;4916134;29;20043;-53
2022/06/08 13:05:31;;;;;;;2.20;2.00;;;28.40;99.90;;;;;;4916284;29;20040;-53
2022/06/08 13:07:58;;;;;;;3.78;2.00;;;;;;;;;;4931492;29;20039;-46
2022/06/08 13:10:25;;;;;;;1.80;1.60;;;;;;;;;;4954754;28;20048;-51
2022/06/08 13:12:54;;;;;;;3.00;1.80;;;;;;;;;;4963205;28;20198;-49
2022/06/08 13:15:30;;;;;;;2.45;1.80;;;;;;;;;;4973637;28;20050;-51
2022/06/08 13:17:57;;;;;;;4.18;2.20;;;;;;;;;;4973519;28;20482;-52
2022/06/08 13:20:28;;;;;;;5.18;1.92;;;;;;;;;;4985706;28;20044;-47
2022/06/08 13:22:55;;;;;;;2.20;1.90;;;;;;;;;;5016549;28;20060;-51
2022/06/08 13:25:23;;;;;;;1.65;1.55;;;;;;;;;;5034615;28;20262;-46
2022/06/08 13:27:50;;;;;;;2.20;1.90;;;;;;;;;;5020196;28;20269;-50
2022/06/08 13:30:19;;;;;;;2.13;1.92;;;;;;;;;;5014591;28;20057;-51
2022/06/08 13:32:47;;;;;;;3.58;2.42;;;29.50;99.90;;;;;;5015624;28;20036;-49
2022/06/08 13:35:13;;;;;;;2.83;2.38;;;;;;;;;;5017390;28;20037;-53
2022/06/08 13:37:41;;;;;;;2.58;1.90;;;;;;;;;;5013471;28;20036;-51
2022/06/08 13:40:14;;;;;;;9.95;3.38;;;;;;;;;;5013852;28;20501;-47
2022/06/08 13:42:41;;;;;;;3.67;2.03;;;;;;;;;;5027478;28;20504;-53